createdAt,value
2019-05-11T00:01:27.428Z,94713.86
2019-05-11T00:03:54.310Z,94714.11
2019-05-11T00:06:21.146Z,94716.02
2019-05-11T00:08:48.181Z,94714.62
2019-05-11T00:11:15.129Z,94718.65
2019-05-11T00:13:41.891Z,94716.98
2019-05-11T00:16:08.787Z,94723.16
2019-05-11T00:18:35.572Z,94723.78
2019-05-11T00:21:02.610Z,94726.50
2019-05-11T00:23:29.368Z,94720.04
2019-05-11T00:25:56.231Z,94715.84
2019-05-11T00:28:23.122Z,94717.99
2019-05-11T00:30:50.191Z,94715.98
2019-05-11T00:33:16.968Z,94720.28
2019-05-11T00:35:44.021Z,94716.22
2019-05-11T00:38:10.811Z,94719.69
2019-05-11T00:40:37.642Z,94720.13
2019-05-11T00:43:04.531Z,94727.95
2019-05-11T00:45:31.406Z,94718.47
2019-05-11T00:47:58.383Z,94716.64
2019-05-11T00:50:38.027Z,94719.91
2019-05-11T00:52:54.343Z,94712.94
2019-05-11T00:55:21.235Z,94714.30
2019-05-11T00:57:48.206Z,94725.24
2019-05-11T01:00:15.728Z,94723.49
2019-05-11T01:02:42.748Z,94720.14
2019-05-11T01:05:09.878Z,94724.21
2019-05-11T01:07:36.670Z,94720.74
2019-05-11T01:10:21.798Z,94729.23
2019-05-11T01:12:36.224Z,94723.98
2019-05-11T01:15:03.707Z,94720.20
2019-05-11T01:17:30.477Z,94729.02
2019-05-11T01:19:58.524Z,94729.45
2019-05-11T01:22:25.522Z,94730.76
2019-05-11T01:24:52.722Z,94737.02
2019-05-11T01:27:19.511Z,94734.11
2019-05-11T01:29:46.337Z,94740.27
2019-05-11T01:32:14.311Z,94740.11
2019-05-11T01:34:41.226Z,94737.80
2019-05-11T01:37:08.105Z,94753.10
2019-05-11T01:39:34.885Z,94740.20
2019-05-11T01:42:01.639Z,94746.64
2019-05-11T01:44:28.512Z,94749.16
2019-05-11T01:46:55.310Z,94749.63
2019-05-11T01:49:22.288Z,94749.32
2019-05-11T01:51:49.070Z,94755.66
2019-05-11T01:54:15.833Z,94752.38
2019-05-11T01:56:42.621Z,94755.41
2019-05-11T01:59:09.591Z,94757.37
2019-05-11T02:01:36.370Z,94757.53
2019-05-11T02:04:03.449Z,94762.82
2019-05-11T02:06:30.230Z,94765.37
2019-05-11T02:08:57.583Z,94767.61
2019-05-11T02:11:24.405Z,94766.77
2019-05-11T02:13:51.253Z,94770.91
2019-05-11T02:16:18.209Z,94771.89
2019-05-11T02:18:45.113Z,94767.20
2019-05-11T02:21:11.890Z,94773.61
2019-05-11T02:23:38.720Z,94776.84
2019-05-11T02:26:05.557Z,94772.14
2019-05-11T02:28:32.424Z,94775.69
2019-05-11T02:30:59.230Z,94773.25
2019-05-11T02:33:26.134Z,94777.67
2019-05-11T02:35:53.000Z,94776.20
2019-05-11T02:38:19.890Z,94778.91
2019-05-11T02:40:46.686Z,94781.27
2019-05-11T02:43:13.727Z,94793.31
2019-05-11T02:45:41.945Z,94791.64
2019-05-11T02:48:09.565Z,94789.45
2019-05-11T02:50:37.236Z,94797.98
2019-05-11T02:53:04.597Z,94801.77
2019-05-11T02:55:32.945Z,94802.58
2019-05-11T02:58:00.237Z,94800.61
2019-05-11T03:00:36.020Z,94798.95
2019-05-11T03:03:02.785Z,94807.08
2019-05-11T03:05:29.884Z,94804.41
2019-05-11T03:07:57.167Z,94805.88
2019-05-11T03:10:24.030Z,94808.03
2019-05-11T03:12:50.896Z,94810.06
2019-05-11T03:15:17.871Z,94812.54
2019-05-11T03:17:44.652Z,94817.64
2019-05-11T03:20:11.548Z,94819.67
2019-05-11T03:22:38.449Z,94821.27
2019-05-11T03:25:05.347Z,94812.27
2019-05-11T03:27:32.232Z,94815.20
2019-05-11T03:30:01.142Z,94813.97
2019-05-11T03:32:28.899Z,94816.64
2019-05-11T03:34:55.945Z,94824.90
2019-05-11T03:37:22.967Z,94830.64
2019-05-11T03:39:49.780Z,94822.19
2019-05-11T03:42:16.585Z,94827.73
2019-05-11T03:44:44.473Z,94829.12
2019-05-11T03:47:11.251Z,94839.73
2019-05-11T03:49:38.059Z,94833.51
2019-05-11T03:52:04.865Z,94837.81
2019-05-11T03:54:31.746Z,94839.42
2019-05-11T03:56:58.534Z,94843.00
2019-05-11T03:59:25.445Z,94849.22
2019-05-11T04:01:52.241Z,94838.10
2019-05-11T04:04:19.083Z,94842.56
2019-05-11T04:06:45.848Z,94844.71
2019-05-11T04:09:12.624Z,94845.19
2019-05-11T04:11:39.358Z,94852.70
2019-05-11T04:14:06.188Z,94848.74
2019-05-11T04:16:33.013Z,94854.13
2019-05-11T04:18:59.784Z,94854.16
2019-05-11T04:21:26.678Z,94855.31
2019-05-11T04:23:53.480Z,94850.02
2019-05-11T04:26:20.291Z,94850.55
2019-05-11T04:28:48.203Z,94850.61
2019-05-11T04:31:15.008Z,94847.48
2019-05-11T04:33:41.875Z,94856.66
2019-05-11T04:36:08.626Z,94852.44
2019-05-11T04:38:35.451Z,94850.94
2019-05-11T04:41:02.249Z,94857.48
2019-05-11T04:43:29.078Z,94856.78
2019-05-11T04:45:55.834Z,94853.06
2019-05-11T04:48:22.584Z,94857.58
2019-05-11T04:50:49.533Z,94864.84
2019-05-11T04:53:16.366Z,94856.56
2019-05-11T04:55:43.128Z,94862.96
2019-05-11T04:58:09.927Z,94860.70
2019-05-11T05:00:36.697Z,94864.59
2019-05-11T05:03:03.643Z,94872.91
2019-05-11T05:05:30.465Z,94867.52
2019-05-11T05:08:08.986Z,94876.12
2019-05-11T05:10:26.012Z,94883.58
2019-05-11T05:12:57.887Z,94879.79
2019-05-11T05:15:22.005Z,94883.55
2019-05-11T05:17:48.784Z,94879.52
2019-05-11T05:20:15.687Z,94881.17
2019-05-11T05:22:42.487Z,94888.45
2019-05-11T05:25:09.284Z,94893.03
2019-05-11T05:27:36.039Z,94887.88
2019-05-11T05:30:04.356Z,94895.97
2019-05-11T05:32:31.279Z,94890.03
2019-05-11T05:34:58.203Z,94895.47
2019-05-11T05:37:25.197Z,94894.19
2019-05-11T05:39:52.066Z,94898.63
2019-05-11T05:42:18.875Z,94896.28
2019-05-11T05:44:45.683Z,94905.91
2019-05-11T05:47:12.532Z,94901.83
2019-05-11T05:49:39.291Z,94907.84
2019-05-11T05:52:06.423Z,94901.77
2019-05-11T05:54:33.539Z,94908.13
2019-05-11T05:57:00.326Z,94916.38
2019-05-11T05:59:27.082Z,94912.28
2019-05-11T06:01:53.922Z,94919.60
2019-05-11T06:04:20.666Z,94919.06
2019-05-11T06:06:47.564Z,94922.66
2019-05-11T06:09:14.512Z,94926.84
2019-05-11T06:11:41.362Z,94926.84
2019-05-11T06:14:08.116Z,94931.27
2019-05-11T06:16:34.847Z,94939.20
2019-05-11T06:19:01.626Z,94935.59
2019-05-11T06:21:28.975Z,94929.50
2019-05-11T06:23:56.248Z,94934.13
2019-05-11T06:26:23.005Z,94937.85
2019-05-11T06:28:49.749Z,94942.74
2019-05-11T06:31:16.574Z,94954.08
2019-05-11T06:33:43.340Z,94946.09
2019-05-11T06:36:10.209Z,94948.34
2019-05-11T06:38:36.967Z,94955.52
2019-05-11T06:41:03.784Z,94952.97
2019-05-11T06:43:30.525Z,94954.64
2019-05-11T06:45:57.848Z,94949.82
2019-05-11T06:48:25.009Z,94949.33
2019-05-11T06:50:51.854Z,94948.52
2019-05-11T06:53:18.620Z,94952.22
2019-05-11T06:55:45.412Z,94948.84
2019-05-11T06:58:12.215Z,94951.59
2019-05-11T07:00:38.974Z,94942.56
2019-05-11T07:03:05.755Z,94948.33
2019-05-11T07:05:32.637Z,94949.66
2019-05-11T07:07:59.443Z,94940.17
2019-05-11T07:10:26.263Z,94942.74
2019-05-11T07:12:53.369Z,94942.26
2019-05-11T07:15:21.298Z,94938.87
2019-05-11T07:17:48.152Z,94933.66
2019-05-11T07:20:15.068Z,94933.55
2019-05-11T07:22:41.824Z,94932.81
2019-05-11T07:25:08.604Z,94939.45
2019-05-11T07:27:35.562Z,94942.73
2019-05-11T07:30:06.444Z,94950.42
2019-05-11T07:32:33.280Z,94947.11
2019-05-11T07:35:00.289Z,94947.98
2019-05-11T07:37:28.028Z,94946.88
2019-05-11T07:39:54.999Z,94942.25
2019-05-11T07:42:22.010Z,94943.80
2019-05-11T07:44:48.705Z,94949.58
2019-05-11T07:47:15.452Z,94962.64
2019-05-11T07:49:42.202Z,94960.84
2019-05-11T07:52:09.114Z,94963.11
2019-05-11T07:54:38.365Z,94957.36
2019-05-11T07:57:04.955Z,94958.45
2019-05-11T07:59:31.729Z,94965.64
2019-05-11T08:01:58.591Z,94964.22
2019-05-11T08:04:25.363Z,94960.91
2019-05-11T08:06:52.359Z,94956.23
2019-05-11T08:09:40.506Z,94956.23
2019-05-11T08:12:22.201Z,94967.05
2019-05-11T08:15:24.854Z,94969.73
2019-05-11T08:17:52.110Z,94980.09
2019-05-11T08:20:19.539Z,94979.25
2019-05-11T08:22:48.170Z,94979.97
2019-05-11T08:31:29.327Z,94979.82
2019-05-11T08:40:51.030Z,94966.66
2019-05-11T08:43:38.974Z,94966.66
2019-05-11T08:46:09.923Z,94962.11
2019-05-11T08:48:38.953Z,94948.21
2019-05-11T08:51:08.521Z,94948.21
2019-05-11T08:53:38.754Z,94963.06
2019-05-11T08:56:50.953Z,94973.45
2019-05-11T08:59:23.636Z,94969.31
2019-05-11T09:11:16.048Z,94962.63
2019-05-11T09:37:05.136Z,94980.59
2019-05-11T09:47:27.775Z,94966.85
2019-05-11T09:50:00.307Z,94973.45
2019-05-11T09:52:41.808Z,94967.98
2019-05-11T09:55:10.504Z,94971.13
2019-05-11T09:58:19.547Z,94976.16
2019-05-11T10:00:32.068Z,94973.53
2019-05-11T10:03:08.263Z,94963.53
2019-05-11T10:05:51.748Z,94954.16
2019-05-11T10:35:00.012Z,94961.70
2019-05-11T10:57:03.271Z,94955.44
2019-05-11T11:02:25.085Z,94958.88
2019-05-11T11:04:54.891Z,94950.78
2019-05-11T11:14:13.990Z,94946.16
2019-05-11T11:21:22.945Z,94947.95
2019-05-11T11:27:29.109Z,94939.27
2019-05-11T11:29:58.592Z,94949.39
2019-05-11T11:32:27.898Z,94957.97
2019-05-11T11:34:57.737Z,94957.80
2019-05-11T11:37:25.569Z,94958.19
2019-05-11T11:39:53.157Z,94946.19
2019-05-11T11:42:21.022Z,94952.47
2019-05-11T11:44:48.791Z,94954.31
2019-05-11T11:47:21.278Z,94954.81
2019-05-11T11:49:47.655Z,94960.14
2019-05-11T11:52:16.089Z,94970.37
2019-05-11T11:55:08.509Z,94959.95
2019-05-11T11:57:40.189Z,94962.48
2019-05-11T12:00:09.571Z,94972.34
2019-05-11T12:02:38.758Z,94966.55
2019-05-11T12:05:08.956Z,94956.14
2019-05-11T12:07:38.636Z,94949.64
2019-05-11T12:10:08.004Z,94950.88
2019-05-11T12:12:35.631Z,94962.22
2019-05-11T12:15:04.632Z,94962.78
2019-05-11T12:17:32.611Z,94961.50
2019-05-11T12:20:00.707Z,94956.68
2019-05-11T12:22:29.079Z,94959.20
2019-05-11T12:24:58.932Z,94962.27
2019-05-11T12:27:28.584Z,94960.61
2019-05-11T12:29:58.170Z,94961.88
2019-05-11T12:32:45.948Z,94951.21
2019-05-11T12:35:14.415Z,94950.85
2019-05-11T12:37:42.178Z,94944.06
2019-05-11T12:40:10.664Z,94953.98
2019-05-11T12:42:38.546Z,94948.83
2019-05-11T12:45:07.729Z,94948.23
2019-05-11T12:47:35.507Z,94937.03
2019-05-11T12:50:05.027Z,94952.09
2019-05-11T12:52:32.639Z,94934.08
2019-05-11T12:55:00.597Z,94944.03
2019-05-11T12:57:28.509Z,94940.56
2019-05-11T12:59:58.273Z,94953.09
2019-05-11T13:02:27.469Z,94949.37
2019-05-11T13:04:55.366Z,94950.00
2019-05-11T13:07:22.927Z,94943.42
2019-05-11T13:09:50.820Z,94942.59
2019-05-11T13:12:19.092Z,94941.49
2019-05-11T13:14:48.898Z,94948.73
2019-05-11T13:17:18.732Z,94929.77
2019-05-11T13:19:47.954Z,94946.48
2019-05-11T13:22:18.306Z,94938.88
2019-05-11T13:24:48.095Z,94923.50
2019-05-11T13:27:17.931Z,94931.28
2019-05-11T13:29:45.403Z,94929.58
2019-05-11T13:32:13.265Z,94933.43
2019-05-11T13:34:40.947Z,94930.54
2019-05-11T13:37:08.707Z,94926.05
2019-05-11T13:39:38.509Z,94915.75
2019-05-11T13:42:08.168Z,94915.23
2019-05-11T13:44:35.974Z,94920.07
2019-05-11T13:47:03.963Z,94925.77
2019-05-11T13:49:32.565Z,94920.45
2019-05-11T13:52:00.707Z,94925.50
2019-05-11T13:54:29.761Z,94911.30
2019-05-11T13:56:57.818Z,94913.17
2019-05-11T13:59:27.860Z,94914.97
2019-05-11T14:01:55.136Z,94919.34
2019-05-11T14:04:22.911Z,94919.13
2019-05-11T14:06:50.768Z,94914.06
2019-05-11T14:09:18.702Z,94914.73
2019-05-11T14:11:47.833Z,94918.19
2019-05-11T14:14:18.192Z,94906.31
2019-05-11T14:16:48.316Z,94910.52
2019-05-11T14:19:17.606Z,94917.58
2019-05-11T14:21:44.931Z,94922.92
2019-05-11T14:24:13.210Z,94918.89
2019-05-11T14:26:40.988Z,94927.43
2019-05-11T14:29:09.620Z,94928.16
2019-05-11T14:31:38.687Z,94920.61
2019-05-11T14:34:08.769Z,94920.16
2019-05-11T14:36:38.512Z,94919.34
2019-05-11T14:39:08.363Z,94918.95
2019-05-11T14:41:38.073Z,94924.80
2019-05-11T14:44:08.762Z,94932.39
2019-05-11T14:46:38.250Z,94930.97
2019-05-11T14:49:07.726Z,94928.67
2019-05-11T14:51:35.401Z,94929.31
2019-05-11T14:54:03.068Z,94944.88
2019-05-11T14:56:30.739Z,94931.34
2019-05-11T14:58:58.489Z,94938.50
2019-05-11T15:01:25.950Z,94937.17
2019-05-11T15:03:53.936Z,94932.00
2019-05-11T15:06:21.781Z,94936.09
2019-05-11T15:08:49.613Z,94929.59
2019-05-11T15:11:19.126Z,94939.74
2019-05-11T15:13:48.828Z,94934.00
2019-05-11T15:16:18.483Z,94942.77
2019-05-11T15:18:48.242Z,94936.16
2019-05-11T15:21:15.448Z,94928.14
2019-05-11T15:23:43.095Z,94938.07
2019-05-11T15:26:10.966Z,94948.14
2019-05-11T15:28:39.642Z,94938.89
2019-05-11T15:31:08.187Z,94932.89
2019-05-11T15:33:38.028Z,94942.31
2019-05-11T15:36:07.450Z,94941.13
2019-05-11T15:38:37.691Z,94939.45
2019-05-11T15:41:04.728Z,94939.58
2019-05-11T15:43:32.473Z,94946.63
2019-05-11T15:46:00.341Z,94948.97
2019-05-11T15:48:28.948Z,94943.80
2019-05-11T15:50:57.777Z,94945.52
2019-05-11T15:53:25.986Z,94941.58
2019-05-11T15:55:53.631Z,94941.51
2019-05-11T15:58:21.792Z,94944.52
2019-05-11T16:00:49.907Z,94946.70
2019-05-11T16:03:18.601Z,94948.22
2019-05-11T16:05:47.931Z,94945.27
2019-05-11T16:08:18.633Z,94944.27
2019-05-11T16:10:45.636Z,94946.86
2019-05-11T16:13:13.422Z,94951.59
2019-05-11T16:15:41.196Z,94953.67
2019-05-11T16:18:09.054Z,94950.16
2019-05-11T16:20:36.722Z,94950.73
2019-05-11T16:23:04.560Z,94961.84
2019-05-11T16:25:32.348Z,94958.98
2019-05-11T16:27:59.904Z,94958.27
2019-05-11T16:30:28.726Z,94965.41
2019-05-11T16:32:58.103Z,94965.41
2019-05-11T16:35:27.991Z,94973.06
2019-05-11T16:37:55.788Z,94965.41
2019-05-11T16:40:23.637Z,94968.70
2019-05-11T16:42:51.404Z,94975.48
2019-05-11T16:45:19.637Z,94969.87
2019-05-11T16:47:48.343Z,94976.64
2019-05-11T16:50:18.070Z,94969.23
2019-05-11T16:52:48.184Z,94977.77
2019-05-11T16:55:18.064Z,94980.52
2019-05-11T16:57:48.303Z,94975.79
2019-05-11T17:00:16.397Z,94982.23
2019-05-11T17:02:43.967Z,94985.58
2019-05-11T17:05:25.347Z,94983.31
2019-05-11T17:07:41.426Z,94984.38
2019-05-11T17:10:09.413Z,94985.59
2019-05-11T17:12:38.572Z,94993.90
2019-05-11T17:15:08.937Z,95003.55
2019-05-11T17:17:36.901Z,95003.55
2019-05-11T17:20:07.984Z,95004.72
2019-05-11T17:22:38.763Z,95006.60
2019-05-11T17:25:08.566Z,95008.42
2019-05-11T17:27:37.648Z,95006.27
2019-05-11T17:30:08.654Z,95002.78
2019-05-11T17:32:38.311Z,95007.48
2019-05-11T17:35:08.472Z,95009.41
2019-05-11T17:37:38.115Z,95022.64
2019-05-11T17:40:09.583Z,95026.46
2019-05-11T17:42:37.846Z,95024.38
2019-05-11T17:45:09.021Z,95033.50
2019-05-11T17:47:38.886Z,95034.90
2019-05-11T17:50:08.143Z,95037.60
2019-05-11T17:52:38.388Z,95042.79
2019-05-11T17:55:07.048Z,95045.42
2019-05-11T17:57:38.103Z,95045.83
2019-05-11T18:00:07.070Z,95041.91
2019-05-11T18:02:34.931Z,95050.08
2019-05-11T18:05:03.413Z,95054.72
2019-05-11T18:07:31.483Z,95058.62
2019-05-11T18:09:59.256Z,95053.33
2019-05-11T18:12:28.590Z,95059.81
2019-05-11T18:14:58.590Z,95059.81
2019-05-11T18:17:26.436Z,95069.87
2019-05-11T18:19:53.901Z,95076.06
2019-05-11T18:22:21.549Z,95082.88
2019-05-11T18:24:49.411Z,95077.09
2019-05-11T18:27:18.472Z,95080.70
2019-05-11T18:29:48.467Z,95076.67
2019-05-11T18:32:16.187Z,95086.09
2019-05-11T18:34:43.622Z,95087.96
2019-05-11T18:37:11.509Z,95086.65
2019-05-11T18:39:39.476Z,95091.95
2019-05-11T18:42:08.264Z,95096.29
2019-05-11T18:44:37.963Z,95102.35
2019-05-11T18:47:05.617Z,95102.69
2019-05-11T18:49:33.293Z,95103.80
2019-05-11T18:52:01.060Z,95106.63
2019-05-11T18:54:28.743Z,95100.43
2019-05-11T18:56:58.797Z,95102.50
2019-05-11T18:59:28.288Z,95111.22
2019-05-11T19:01:56.007Z,95112.09
2019-05-11T19:04:23.878Z,95114.03
2019-05-11T19:06:51.957Z,95117.01
2019-05-11T19:09:19.712Z,95122.09
2019-05-11T19:11:48.950Z,95116.19
2019-05-11T19:14:17.806Z,95124.09
2019-05-11T19:16:45.639Z,95126.45
2019-05-11T19:19:13.594Z,95122.90
2019-05-11T19:21:41.409Z,95121.82
2019-05-11T19:24:09.499Z,95121.86
2019-05-11T19:26:37.147Z,95120.65
2019-05-11T19:29:04.986Z,95119.16
2019-05-11T19:31:32.646Z,95121.70
2019-05-11T19:34:00.415Z,95121.35
2019-05-11T19:36:28.289Z,95120.16
2019-05-11T19:38:58.300Z,95122.94
2019-05-11T19:41:27.837Z,95115.05
2019-05-11T19:43:57.316Z,95115.19
2019-05-11T19:46:24.621Z,95118.08
2019-05-11T19:48:52.852Z,95122.00
2019-05-11T19:51:20.705Z,95126.66
2019-05-11T19:53:48.667Z,95138.32
2019-05-11T19:56:18.308Z,95127.40
2019-05-11T19:58:48.431Z,95125.58
2019-05-11T20:01:15.950Z,95126.73
2019-05-11T20:03:43.728Z,95128.70
2019-05-11T20:06:11.560Z,95132.03
2019-05-11T20:08:38.933Z,95128.70
2019-05-11T20:11:08.259Z,95118.58
2019-05-11T20:13:38.640Z,95125.97
2019-05-11T20:16:08.117Z,95125.33
2019-05-11T20:18:35.013Z,95122.92
2019-05-11T20:21:15.462Z,95120.41
2019-05-11T20:23:32.171Z,95115.12
2019-05-11T20:25:59.952Z,95118.77
2019-05-11T20:28:28.471Z,95115.83
2019-05-11T20:30:58.279Z,95109.88
2019-05-11T20:33:27.974Z,95108.77
2019-05-11T20:35:58.175Z,95105.70
2019-05-11T20:38:27.993Z,95103.30
2019-05-11T20:40:57.613Z,95096.52
2019-05-11T20:43:24.953Z,95101.69
2019-05-11T20:45:56.024Z,95098.86
2019-05-11T20:48:22.401Z,95088.30
2019-05-11T20:50:49.990Z,95093.80
2019-05-11T20:53:18.211Z,95084.95
2019-05-11T20:55:47.903Z,95085.39
2019-05-11T20:58:18.811Z,95088.47
2019-05-11T21:00:48.454Z,95092.03
2019-05-11T21:03:15.627Z,95088.70
2019-05-11T21:05:43.402Z,95097.94
2019-05-11T21:08:10.977Z,95092.08
2019-05-11T21:10:38.880Z,95103.59
2019-05-11T21:13:08.577Z,95099.66
2019-05-11T21:15:38.439Z,95103.53
2019-05-11T21:18:07.914Z,95108.27
2019-05-11T21:20:38.034Z,95103.71
2019-05-11T21:23:08.188Z,95106.19
2019-05-11T21:25:37.803Z,95103.91
2019-05-11T21:28:05.769Z,95109.34
2019-05-11T21:30:33.439Z,95113.50
2019-05-11T21:33:01.405Z,95109.53
2019-05-11T21:35:28.968Z,95109.75
2019-05-11T21:37:57.999Z,95108.08
2019-05-11T21:40:25.926Z,95103.38
2019-05-11T21:42:53.887Z,95102.23
2019-05-11T21:45:21.619Z,95098.86
2019-05-11T21:47:49.526Z,95100.04
2019-05-11T21:50:19.042Z,95089.25
2019-05-11T21:52:48.447Z,95091.00
2019-05-11T21:55:16.407Z,95101.13
2019-05-11T21:57:44.049Z,95093.48
2019-05-11T22:00:12.455Z,95100.03
2019-05-11T22:02:41.948Z,95094.48
2019-05-11T22:05:13.692Z,95096.67
2019-05-11T22:07:42.135Z,95095.09
2019-05-11T22:10:10.476Z,95092.67
2019-05-11T22:12:39.232Z,95090.85
2019-05-11T22:15:09.763Z,95095.50
2019-05-11T22:17:39.359Z,95103.38
2019-05-11T22:20:08.470Z,95104.27
2019-05-11T22:22:38.575Z,95113.97
2019-05-11T22:25:07.869Z,95104.23
2019-05-11T22:27:38.390Z,95102.91
2019-05-11T22:30:08.476Z,95105.68
2019-05-11T22:32:38.498Z,95111.11
2019-05-11T22:35:07.443Z,95111.09
2019-05-11T22:37:35.096Z,95108.67
2019-05-11T22:40:04.573Z,95107.08
2019-05-11T22:42:32.471Z,95102.77
2019-05-11T22:45:00.336Z,95097.92
2019-05-11T22:47:28.466Z,95092.00
2019-05-11T22:49:58.319Z,95092.29
2019-05-11T22:52:36.144Z,95093.97
2019-05-11T22:54:59.036Z,95085.58
2019-05-11T22:57:27.036Z,95080.47
2019-05-11T22:59:54.709Z,95082.09
2019-05-11T23:02:22.155Z,95076.69
2019-05-11T23:04:50.340Z,95072.64
2019-05-11T23:07:18.589Z,95072.16
2019-05-11T23:09:46.776Z,95069.46
2019-05-11T23:12:14.442Z,95068.95
2019-05-11T23:14:42.202Z,95062.71
2019-05-11T23:17:09.644Z,95069.48
2019-05-11T23:19:38.253Z,95061.39
2019-05-11T23:22:08.254Z,95063.55
2019-05-11T23:24:35.929Z,95054.37
2019-05-11T23:27:03.897Z,95059.02
2019-05-11T23:29:31.632Z,95060.08
2019-05-11T23:31:59.417Z,95053.63
2019-05-11T23:34:28.241Z,95053.08
2019-05-11T23:36:55.987Z,95042.27
2019-05-11T23:39:23.846Z,95050.40
2019-05-11T23:41:51.708Z,95049.59
2019-05-11T23:44:19.460Z,95046.61
2019-05-11T23:46:47.871Z,95039.07
2019-05-11T23:49:17.991Z,95034.17
2019-05-11T23:51:47.762Z,95035.27
2019-05-11T23:54:15.447Z,95041.47
2019-05-11T23:56:43.213Z,95030.94
2019-05-11T23:59:11.062Z,95033.67
